Time;durP1;ratioP1;P1;durP2;ratioP2;P2;SDS_P1;SDS_P2;PMS_P1;PMS_P2;Temp;Humidity;BMP_temperature;BMP_pressure;BME280_temperature;BME280_humidity;BME280_pressure;Samples;Min_cycle;Max_cycle;Signal;HPM_P1;HPM_P2
2020/12/02 00:00:37;;;;;;;25.95;17.55;;;6.00;99.90;;;;;;10366364;28;20085;-94
2020/12/02 00:05:52;;;;;;;30.15;18.70;;;5.90;99.90;;;;;;10366969;28;20058;-94
2020/12/02 00:10:53;;;;;;;33.20;17.83;;;5.90;99.90;;;;;;10366350;28;20464;-95
2020/12/02 00:15:55;;;;;;;31.08;19.95;;;6.00;99.90;;;;;;10383804;28;20061;-94
2020/12/02 00:20:57;;;;;;;28.55;17.83;;;5.90;99.90;;;;;;10399181;28;20060;-94
2020/12/02 00:25:58;;;;;;;26.17;18.38;;;5.90;99.90;;;;;;10396935;28;20065;-94
2020/12/02 00:31:00;;;;;;;27.48;16.73;;;5.90;99.90;;;;;;10405302;28;20061;-94
2020/12/02 00:36:02;;;;;;;27.55;18.67;;;5.90;99.90;;;;;;10405225;28;20464;-94
2020/12/02 00:41:04;;;;;;;23.83;16.40;;;5.90;99.90;;;;;;10405814;28;20145;-94
2020/12/02 00:46:06;;;;;;;28.45;16.75;;;5.90;99.90;;;;;;10369323;28;20053;-94
2020/12/02 00:51:09;;;;;;;30.73;19.27;;;5.90;99.90;;;;;;10363076;28;20108;-94
2020/12/02 00:56:13;;;;;;;32.10;20.13;;;5.90;99.90;;;;;;10364725;28;20058;-95
2020/12/02 01:01:38;;;;;;;35.35;20.60;;;5.90;99.90;;;;;;10380583;28;20058;-94
2020/12/02 01:06:40;;;;;;;31.33;21.33;;;5.90;99.90;;;;;;10364479;28;20555;-94
2020/12/02 01:11:43;;;;;;;;;;;5.80;99.90;;;;;;10363803;28;20137;-94
2020/12/02 01:16:51;;;;;;;26.75;16.92;;;5.90;99.90;;;;;;10362375;28;20333;-94
2020/12/02 01:22:35;;;;;;;27.25;17.75;;;5.80;99.90;;;;;;10364452;28;20076;-94
2020/12/02 01:27:55;;;;;;;32.85;20.05;;;5.80;99.90;;;;;;10364159;28;20145;-95
2020/12/02 01:32:57;;;;;;;30.25;20.08;;;5.90;99.90;;;;;;10363754;28;20049;-95
2020/12/02 01:38:06;;;;;;;29.23;17.83;;;5.80;99.90;;;;;;10361737;28;20424;-95
2020/12/02 01:43:11;;;;;;;29.13;19.83;;;5.80;99.90;;;;;;10374876;28;20163;-94
2020/12/02 01:48:40;;;;;;;36.88;21.55;;;5.80;99.90;;;;;;10387598;28;20084;-95
2020/12/02 01:54:30;;;;;;;36.47;22.13;;;5.80;99.90;;;;;;10402594;28;20107;-95
2020/12/02 02:00:06;;;;;;;43.50;25.48;;;5.80;99.90;;;;;;10352727;28;20560;-95
2020/12/02 02:05:20;;;;;;;34.38;21.20;;;5.80;99.90;;;;;;10418654;28;20053;-95
2020/12/02 02:10:36;;;;;;;35.78;21.83;;;5.80;99.90;;;;;;10426498;28;20119;-94
2020/12/02 02:15:50;;;;;;;35.65;20.90;;;5.80;99.90;;;;;;10427326;28;20131;-93
2020/12/02 02:21:06;;;;;;;32.38;19.27;;;5.80;99.90;;;;;;10426977;28;20064;-94
2020/12/02 02:26:23;;;;;;;31.20;19.33;;;5.80;99.90;;;;;;10418285;28;20088;-94
2020/12/02 02:31:29;;;;;;;40.60;20.85;;;5.80;99.90;;;;;;10426899;28;20049;-94
2020/12/02 02:36:30;;;;;;;38.90;21.67;;;5.80;99.90;;;;;;10410037;28;20072;-94
2020/12/02 02:41:33;;;;;;;28.80;18.02;;;5.70;99.90;;;;;;10409907;28;20076;-94
2020/12/02 02:46:35;;;;;;;31.15;18.80;;;5.80;99.90;;;;;;10425164;28;20557;-94
2020/12/02 02:51:36;;;;;;;28.10;17.60;;;5.70;99.90;;;;;;10424584;28;20144;-93
2020/12/02 02:56:38;;;;;;;38.67;21.50;;;5.70;99.90;;;;;;10409182;28;20107;-94
2020/12/02 03:01:43;;;;;;;29.35;17.75;;;5.70;99.90;;;;;;10425284;28;20061;-94
2020/12/02 03:06:45;;;;;;;39.95;20.70;;;5.70;99.90;;;;;;10426164;28;20091;-94
2020/12/02 03:11:49;;;;;;;37.30;19.52;;;5.70;99.90;;;;;;10425964;28;20053;-94
2020/12/02 03:16:53;;;;;;;36.50;20.55;;;5.70;99.90;;;;;;10431602;28;20146;-94
2020/12/02 03:22:00;;;;;;;37.22;20.10;;;5.70;99.90;;;;;;10432851;28;20064;-93
2020/12/02 03:27:06;;;;;;;44.50;19.50;;;5.70;99.90;;;;;;10434512;28;20064;-94
2020/12/02 03:32:07;;;;;;;34.72;19.45;;;5.70;99.90;;;;;;10433271;28;20136;-94
2020/12/02 03:37:09;;;;;;;49.00;24.17;;;5.60;99.90;;;;;;10432340;28;20076;-94
2020/12/02 03:42:10;;;;;;;53.42;24.90;;;5.70;99.90;;;;;;10432703;28;20136;-94
2020/12/02 03:47:12;;;;;;;41.42;21.20;;;5.70;99.90;;;;;;10415670;28;20072;-94
2020/12/02 03:52:15;;;;;;;37.53;17.77;;;5.60;99.90;;;;;;10448791;28;20053;-94
2020/12/02 03:57:17;;;;;;;43.67;18.30;;;5.70;99.90;;;;;;10464519;28;20079;-94
2020/12/02 04:02:18;;;;;;;28.98;13.90;;;5.70;99.90;;;;;;10415858;28;20140;-95
2020/12/02 04:07:20;;;;;;;30.30;16.15;;;5.70;99.90;;;;;;10430902;28;20059;-94
2020/12/02 04:12:21;;;;;;;33.42;15.88;;;5.70;99.90;;;;;;10432055;28;20476;-94
2020/12/02 04:17:23;;;;;;;33.80;14.25;;;5.60;99.90;;;;;;10431093;28;20486;-94
2020/12/02 04:22:25;;;;;;;30.52;14.85;;;5.60;99.90;;;;;;10415098;28;20136;-94
2020/12/02 04:27:26;;;;;;;28.23;13.40;;;5.60;99.90;;;;;;10429849;28;20148;-94
2020/12/02 04:32:28;;;;;;;27.83;13.85;;;5.60;99.90;;;;;;10430543;28;20053;-94
2020/12/02 04:37:32;;;;;;;26.67;13.43;;;5.60;99.90;;;;;;10431175;28;20085;-94
2020/12/02 04:42:38;;;;;;;25.10;13.95;;;5.60;99.90;;;;;;10436317;22;20047;-94
2020/12/02 04:47:43;;;;;;;25.27;13.02;;;5.60;99.90;;;;;;10389344;28;20073;-94
2020/12/02 04:53:09;;;;;;;24.20;13.40;;;5.60;99.90;;;;;;10390285;28;20407;-94
2020/12/02 04:58:30;;;;;;;24.83;13.18;;;5.60;99.90;;;;;;10390355;28;20544;-94
2020/12/02 05:03:31;;;;;;;21.75;10.65;;;5.60;99.90;;;;;;10388173;28;20089;-94
2020/12/02 05:08:33;;;;;;;20.13;11.48;;;5.60;99.90;;;;;;10388342;28;20053;-94
2020/12/02 05:13:34;;;;;;;20.02;11.00;;;5.60;99.90;;;;;;10390291;28;20058;-94
2020/12/02 05:18:36;;;;;;;20.90;11.73;;;5.60;99.90;;;;;;10387502;28;20140;-94
2020/12/02 05:23:38;;;;;;;;;;;5.60;99.90;;;;;;10373384;28;20448;-95
2020/12/02 05:28:40;;;;;;;18.40;11.18;;;5.60;99.90;;;;;;10387058;28;20016;-95
2020/12/02 05:33:42;;;;;;;25.77;13.55;;;5.60;99.90;;;;;;10387175;28;20061;-94
2020/12/02 05:38:54;;;;;;;27.60;12.73;;;5.60;99.90;;;;;;10386471;28;20136;-95
2020/12/02 05:44:18;;;;;;;18.75;13.13;;;5.60;99.90;;;;;;10402663;28;20145;-94
2020/12/02 05:49:50;;;;;;;35.72;17.10;;;5.60;99.90;;;;;;10386625;28;20128;-95
2020/12/02 05:55:10;;;;;;;38.75;19.02;;;5.60;99.90;;;;;;10402598;28;20111;-94
2020/12/02 06:00:12;;;;;;;34.22;18.35;;;5.60;99.90;;;;;;10403741;28;20104;-94
2020/12/02 06:05:14;;;;;;;38.22;19.30;;;5.60;99.90;;;;;;10385758;28;20429;-94
2020/12/02 06:10:20;;;;;;;46.10;20.95;;;5.60;99.90;;;;;;10384733;28;20237;-94
2020/12/02 06:15:24;;;;;;;30.90;17.23;;;5.60;99.90;;;;;;10385479;28;20481;-94
2020/12/02 06:20:28;;;;;;;28.88;15.73;;;5.50;99.90;;;;;;10402725;28;20079;-94
2020/12/02 06:25:56;;;;;;;23.60;13.70;;;5.50;99.90;;;;;;10401848;28;20065;-95
2020/12/02 06:31:07;;;;;;;30.52;16.48;;;5.50;99.90;;;;;;10385912;28;20141;-95
2020/12/02 06:36:15;;;;;;;25.98;14.80;;;5.50;99.90;;;;;;10401805;28;20084;-94
2020/12/02 06:41:33;;;;;;;23.20;13.45;;;5.40;99.90;;;;;;10401546;28;20503;-95
2020/12/02 06:47:01;;;;;;;24.25;14.73;;;5.40;99.90;;;;;;10385597;28;20064;-94
2020/12/02 06:52:22;;;;;;;20.83;13.40;;;5.40;99.90;;;;;;10384620;28;20049;-95
2020/12/02 06:57:27;;;;;;;18.48;12.20;;;5.40;99.90;;;;;;10385238;28;20092;-95
2020/12/02 07:03:00;;;;;;;23.90;12.27;;;5.40;99.90;;;;;;10385045;28;20053;-95
2020/12/02 07:08:21;;;;;;;18.90;11.13;;;5.40;99.90;;;;;;10383856;28;20057;-94
2020/12/02 07:13:25;;;;;;;17.70;10.75;;;5.40;99.90;;;;;;10384417;28;20100;-94
2020/12/02 07:18:27;;;;;;;19.23;11.65;;;5.40;99.90;;;;;;10384283;28;20085;-95
2020/12/02 07:23:32;;;;;;;21.65;13.15;;;5.40;99.90;;;;;;10383814;28;20123;-95
2020/12/02 07:28:34;;;;;;;20.60;12.18;;;5.40;99.90;;;;;;10384229;28;20140;-94
2020/12/02 07:33:39;;;;;;;23.85;12.70;;;5.40;99.90;;;;;;10368211;28;20099;-95
2020/12/02 07:38:43;;;;;;;24.60;14.02;;;5.40;99.90;;;;;;10370244;28;20057;-94
2020/12/02 07:43:48;;;;;;;20.42;12.38;;;5.40;99.90;;;;;;10368267;28;20137;-95
2020/12/02 07:48:54;;;;;;;23.02;14.50;;;5.40;99.90;;;;;;10383277;28;20136;-95
2020/12/02 07:54:11;;;;;;;28.00;13.57;;;5.40;99.90;;;;;;10384263;28;20480;-94
2020/12/02 07:59:21;;;;;;;25.65;14.65;;;5.40;99.90;;;;;;10385043;28;20084;-95
2020/12/02 08:04:22;;;;;;;21.92;13.77;;;5.40;99.90;;;;;;10390561;28;20088;-95
2020/12/02 08:09:24;;;;;;;23.45;15.20;;;5.40;99.90;;;;;;10406329;28;20141;-95
2020/12/02 08:14:37;;;;;;;27.27;14.98;;;5.40;99.90;;;;;;10407200;28;20496;-95
2020/12/02 08:19:43;;;;;;;30.02;15.30;;;5.40;99.90;;;;;;10390729;28;20073;-95
2020/12/02 08:24:44;;;;;;;33.30;17.67;;;5.40;99.90;;;;;;10365403;28;20140;-95
2020/12/02 08:29:50;;;;;;;23.75;14.88;;;5.40;99.90;;;;;;10364803;28;20543;-95
2020/12/02 08:34:51;;;;;;;23.75;14.32;;;5.40;99.90;;;;;;10369462;28;20533;-96
2020/12/02 08:39:56;;;;;;;24.65;13.75;;;5.40;99.90;;;;;;10364742;28;20512;-96
2020/12/02 08:45:10;;;;;;;31.30;16.33;;;5.30;99.90;;;;;;10348833;28;20105;-95
2020/12/02 08:50:27;;;;;;;31.75;15.10;;;5.30;99.90;;;;;;10382073;28;20533;-95
2020/12/02 08:55:29;;;;;;;33.20;14.68;;;5.40;99.90;;;;;;10367503;28;20409;-96
2020/12/02 09:00:30;;;;;;;31.70;16.25;;;5.40;99.90;;;;;;10364633;28;20069;-94
2020/12/02 09:05:32;;;;;;;31.17;15.52;;;5.30;99.90;;;;;;10364885;28;20095;-94
2020/12/02 09:10:34;;;;;;;28.75;15.85;;;5.40;99.90;;;;;;10362460;28;20078;-94
2020/12/02 09:15:35;;;;;;;38.42;19.45;;;5.40;99.90;;;;;;10362885;28;20088;-94
2020/12/02 09:20:39;;;;;;;44.75;19.92;;;5.40;99.90;;;;;;10346865;28;20081;-94
2020/12/02 09:25:41;;;;;;;46.95;22.13;;;5.40;99.90;;;;;;10363421;28;20065;-95
2020/12/02 09:30:43;;;;;;;42.20;20.55;;;5.40;99.90;;;;;;10363353;28;20100;-95
2020/12/02 09:35:44;;;;;;;52.30;22.90;;;5.30;99.90;;;;;;10362165;28;20541;-95
2020/12/02 09:40:46;;;;;;;58.25;23.15;;;5.40;99.90;;;;;;10363018;28;20092;-95
2020/12/02 09:46:06;;;;;;;52.80;23.17;;;5.30;99.90;;;;;;10360989;28;20097;-94
2020/12/02 09:51:29;;;;;;;49.03;22.63;;;5.30;99.90;;;;;;10361208;28;20441;-95
2020/12/02 09:56:42;;;;;;;53.58;22.05;;;5.30;99.90;;;;;;10402567;28;20057;-94
2020/12/02 10:02:23;;;;;;;53.25;22.88;;;5.30;99.90;;;;;;10384881;28;20463;-94
2020/12/02 10:08:16;;;;;;;64.22;24.38;;;5.40;99.90;;;;;;10364287;28;20077;-94
2020/12/02 10:13:37;;;;;;;74.07;25.83;;;5.30;99.90;;;;;;10370851;28;20451;-94
2020/12/02 10:18:56;;;;;;;81.18;27.48;;;5.40;99.90;;;;;;10386485;28;20108;-95
2020/12/02 10:24:17;;;;;;;61.88;25.30;;;5.40;99.90;;;;;;10416546;28;20067;-95
2020/12/02 10:29:34;;;;;;;67.50;24.20;;;5.40;99.90;;;;;;10417373;28;20064;-95
2020/12/02 10:34:41;;;;;;;73.00;26.63;;;5.40;99.90;;;;;;10385904;28;20449;-94
2020/12/02 10:39:42;;;;;;;65.60;23.63;;;5.60;99.90;;;;;;10384665;28;20064;-94
2020/12/02 10:44:53;;;;;;;58.05;24.17;;;5.50;99.90;;;;;;10385121;28;20559;-95
2020/12/02 10:49:55;;;;;;;58.55;21.83;;;5.50;99.90;;;;;;10395412;28;20049;-95
2020/12/02 10:54:57;;;;;;;62.60;22.60;;;5.60;99.90;;;;;;10328302;28;20116;-94
2020/12/02 14:24:37;;;;;;;62.22;24.50;;;5.70;99.90;;;;;;10375122;28;20054;-96
2020/12/02 14:29:39;;;;;;;60.30;25.27;;;5.70;99.90;;;;;;10422011;28;20144;-90
2020/12/02 14:34:42;;;;;;;61.97;23.13;;;5.60;99.90;;;;;;10404434;28;20057;-90
2020/12/02 14:39:43;;;;;;;61.05;25.08;;;5.70;99.90;;;;;;10407972;28;20056;-90
2020/12/02 14:44:46;;;;;;;62.33;25.33;;;5.70;99.90;;;;;;10407667;28;20068;-90
2020/12/02 14:49:48;;;;;;;54.53;23.13;;;5.70;99.90;;;;;;10423719;28;20091;-90
2020/12/02 14:54:49;;;;;;;46.13;22.30;;;5.70;99.90;;;;;;10422918;28;20483;-90
2020/12/02 15:00:06;;;;;;;;;;;5.70;99.90;;;;;;10440322;28;20072;-90
2020/12/02 15:05:24;;;;;;;58.50;24.02;;;5.70;99.90;;;;;;10410947;28;19987;-90
2020/12/02 15:10:38;;;;;;;44.20;19.00;;;5.70;99.90;;;;;;10381688;28;20172;-90
2020/12/02 15:15:40;;;;;;;54.78;24.45;;;5.70;99.90;;;;;;10400662;28;20152;-90
2020/12/02 15:21:01;;;;;;;50.20;22.27;;;5.70;99.90;;;;;;10367275;28;20080;-90
2020/12/02 15:26:03;;;;;;;57.65;27.38;;;5.70;99.90;;;;;;10367882;28;20089;-91
2020/12/02 15:31:11;;;;;;;48.60;21.65;;;5.70;99.90;;;;;;10352529;28;20410;-91
2020/12/02 15:36:33;;;;;;;48.70;21.13;;;5.70;99.90;;;;;;10369986;28;20130;-91
2020/12/02 15:41:48;;;;;;;42.47;20.88;;;5.70;99.90;;;;;;10371240;28;20060;-90
2020/12/02 15:47:26;;;;;;;46.28;21.67;;;5.70;99.90;;;;;;10372818;28;20054;-90
2020/12/02 15:52:45;;;;;;;45.85;21.50;;;5.60;99.90;;;;;;10358355;28;20081;-91
2020/12/02 15:58:24;;;;;;;58.08;24.38;;;5.60;99.90;;;;;;10358090;28;20136;-91
2020/12/02 16:03:31;;;;;;;60.03;25.13;;;5.60;99.90;;;;;;10357968;28;20114;-91
2020/12/02 16:08:42;;;;;;;50.85;23.50;;;5.60;99.90;;;;;;10341621;28;20054;-91
2020/12/02 16:13:45;;;;;;;43.77;22.53;;;5.60;99.90;;;;;;10357548;28;20073;-91
2020/12/02 16:18:46;;;;;;;49.28;23.20;;;5.60;99.90;;;;;;10325433;28;20088;-90
2020/12/02 16:23:50;;;;;;;42.83;19.92;;;5.50;99.90;;;;;;10331821;28;20068;-91
2020/12/02 16:28:54;;;;;;;55.30;22.17;;;5.50;99.90;;;;;;10399962;28;20140;-91
2020/12/02 16:33:57;;;;;;;48.63;22.02;;;5.50;99.90;;;;;;10389995;28;20108;-91
2020/12/02 16:39:08;;;;;;;42.78;21.50;;;5.50;99.90;;;;;;10389917;28;20065;-91
2020/12/02 16:44:26;;;;;;;46.63;22.58;;;5.50;99.90;;;;;;10404823;28;20053;-91
2020/12/02 16:49:44;;;;;;;49.05;22.67;;;5.50;99.90;;;;;;10436625;28;20139;-91
2020/12/02 16:55:22;;;;;;;43.60;21.77;;;5.40;99.90;;;;;;10470579;28;20053;-91
2020/12/02 17:00:32;;;;;;;42.05;20.70;;;5.50;99.90;;;;;;10454472;22;20406;-94
2020/12/02 17:05:34;;;;;;;54.08;22.98;;;5.40;99.90;;;;;;10471505;28;20083;-94
2020/12/02 17:10:35;;;;;;;38.63;20.00;;;5.40;99.90;;;;;;10453095;28;20098;-95
2020/12/02 17:16:20;;;;;;;44.92;20.65;;;5.40;99.90;;;;;;10470908;28;20057;-95
2020/12/02 17:21:55;;;;;;;45.45;20.63;;;5.40;99.90;;;;;;10486936;28;20060;-96
2020/12/02 17:27:20;;;;;;;33.90;18.08;;;5.40;99.90;;;;;;10487169;28;20052;-96
2020/12/02 17:32:46;;;;;;;45.38;19.67;;;5.40;99.90;;;;;;10469260;28;20139;-95
2020/12/02 17:38:40;;;;;;;51.53;20.20;;;5.40;99.90;;;;;;10469071;28;20118;-94
2020/12/02 17:44:16;;;;;;;51.90;21.17;;;5.40;99.90;;;;;;10485005;28;20051;-95
2020/12/02 17:50:08;;;;;;;48.50;21.02;;;5.40;99.90;;;;;;10484482;28;20056;-94
2020/12/02 17:55:44;;;;;;;61.92;25.40;;;5.30;99.90;;;;;;10358370;28;20053;-95
2020/12/02 18:01:22;;;;;;;69.38;25.88;;;5.30;99.90;;;;;;10387149;28;20483;-95
2020/12/02 18:06:40;;;;;;;60.72;24.08;;;5.40;99.90;;;;;;10484899;28;20052;-95
2020/12/02 18:12:58;;;;;;;61.88;24.88;;;5.40;99.90;;;;;;10484881;28;20052;-96
2020/12/02 18:18:43;;;;;;;66.85;26.73;;;5.40;99.90;;;;;;10484479;28;20060;-95
2020/12/02 18:24:14;;;;;;;86.25;32.63;;;5.30;99.90;;;;;;10482747;28;20052;-95
2020/12/02 18:30:06;;;;;;;;;;;;;;;;;;;;;
2020/12/02 18:35:38;;;;;;;71.88;29.58;;;5.30;99.90;;;;;;10484097;28;20126;-95
2020/12/02 18:41:35;;;;;;;69.13;26.60;;;5.30;99.90;;;;;;10484135;28;20094;-95
2020/12/02 18:47:12;;;;;;;69.03;28.98;;;5.40;99.90;;;;;;10471462;28;20145;-96
2020/12/02 18:52:23;;;;;;;62.10;26.90;;;5.40;99.90;;;;;;10499114;28;20147;-95
2020/12/02 18:58:08;;;;;;;62.58;25.85;;;5.40;99.90;;;;;;10466539;28;20053;-95
2020/12/02 19:03:19;;;;;;;73.90;28.63;;;5.40;99.90;;;;;;10482388;28;20102;-95
2020/12/02 19:08:25;;;;;;;70.70;27.35;;;5.40;99.90;;;;;;10483856;28;20131;-94
2020/12/02 19:14:06;;;;;;;58.70;24.85;;;5.40;99.90;;;;;;10467684;28;20057;-95
2020/12/02 19:19:38;;;;;;;47.95;22.83;;;5.40;99.90;;;;;;10483943;28;20075;-95
2020/12/02 19:25:22;;;;;;;54.90;21.75;;;5.50;99.90;;;;;;10483391;28;20084;-95
2020/12/02 19:30:45;;;;;;;41.95;19.40;;;5.40;99.90;;;;;;10466366;28;20458;-95
2020/12/02 19:36:13;;;;;;;47.00;20.95;;;5.50;99.90;;;;;;10452564;28;20087;-95
2020/12/02 19:41:24;;;;;;;37.95;18.80;;;5.40;99.90;;;;;;10449225;28;20056;-95
